createdAt,value
2023-02-09T00:09:58.581Z,1068.8429
2023-02-09T00:25:00.892Z,827.94116
2023-02-09T00:40:03.158Z,524.91217
2023-02-09T00:55:05.400Z,214.27574
2023-02-09T01:10:07.895Z,35.50131
2023-02-09T01:25:10.133Z,2.53581
2023-02-09T01:40:12.470Z,0
2023-02-09T01:55:14.912Z,0
2023-02-09T02:10:17.186Z,0
2023-02-09T02:25:19.725Z,0
2023-02-09T02:40:21.996Z,0
2023-02-09T02:55:24.453Z,0
2023-02-09T03:10:26.868Z,0
2023-02-09T03:25:29.196Z,0
2023-02-09T03:40:31.398Z,0
2023-02-09T03:55:33.661Z,0
2023-02-09T04:10:35.957Z,0
2023-02-09T04:25:38.347Z,0
2023-02-09T04:40:40.717Z,0
2023-02-09T04:55:42.950Z,0
2023-02-09T05:10:45.482Z,0
2023-02-09T05:25:47.995Z,0
2023-02-09T05:40:50.929Z,0
2023-02-09T05:55:53.413Z,0
2023-02-09T06:10:55.934Z,0
2023-02-09T06:25:58.176Z,0
2023-02-09T06:41:00.483Z,0
2023-02-09T06:56:02.702Z,0
2023-02-09T07:11:04.915Z,0
2023-02-09T07:26:07.159Z,0
2023-02-09T07:41:09.523Z,0
2023-02-09T07:56:11.862Z,0
2023-02-09T08:11:14.082Z,0
2023-02-09T08:26:16.293Z,0
2023-02-09T08:41:18.531Z,0
2023-02-09T08:56:20.746Z,0
2023-02-09T09:11:23.216Z,0
2023-02-09T09:26:25.449Z,0
2023-02-09T09:41:27.672Z,0
2023-02-09T09:56:29.924Z,0
2023-02-09T10:11:32.130Z,0
2023-02-09T10:26:34.320Z,0
2023-02-09T10:41:36.645Z,0
2023-02-09T10:56:38.818Z,0
2023-02-09T11:11:41.114Z,0
2023-02-09T11:26:43.333Z,0
2023-02-09T11:41:45.607Z,0
2023-02-09T11:56:47.819Z,0
2023-02-09T12:11:50.060Z,0
2023-02-09T12:26:52.349Z,0
2023-02-09T12:41:54.577Z,0
2023-02-09T12:56:56.802Z,0
2023-02-09T13:11:59.026Z,0
2023-02-09T13:27:01.286Z,0
2023-02-09T13:42:03.523Z,0
2023-02-09T13:57:05.846Z,0
2023-02-09T14:12:09.629Z,0
2023-02-09T14:27:11.962Z,0
2023-02-09T14:42:14.225Z,1.2679
2023-02-09T14:57:16.477Z,22.82227
2023-02-09T15:12:18.701Z,90.02117
2023-02-09T15:27:20.961Z,270.06351
2023-02-09T15:42:23.244Z,579.43207
2023-02-09T15:57:25.542Z,1051.09229
2023-02-09T16:12:27.739Z,1319.88782
2023-02-09T16:27:29.990Z,2060.34375
2023-02-09T16:42:32.273Z,2704.43872
2023-02-09T16:57:34.441Z,2736.13647
2023-02-09T17:12:36.694Z,3338.39062
2023-02-09T17:27:39.011Z,3820.19409
2023-02-09T17:42:41.217Z,2400.14185
2023-02-09T17:57:43.467Z,2846.44409
2023-02-09T18:12:45.664Z,2469.87671
2023-02-09T18:27:48.016Z,2239.11816
2023-02-09T18:42:51.388Z,2218.83154
2023-02-09T18:57:53.678Z,2500.3064
2023-02-09T19:12:55.855Z,3060.71973
2023-02-09T19:27:58.148Z,3394.17847
2023-02-09T19:43:00.735Z,3664.24194
2023-02-09T19:58:02.970Z,4758.44287
2023-02-09T20:13:05.311Z,4720.40576
2023-02-09T20:28:07.539Z,2998.59253
2023-02-09T20:43:09.857Z,2455.92969
2023-02-09T20:58:12.123Z,2893.35645
2023-02-09T21:13:14.442Z,2071.75488
2023-02-09T21:28:16.876Z,1995.68054
2023-02-09T21:43:19.169Z,1620.3811
2023-02-09T21:58:21.465Z,1763.65417
2023-02-09T22:13:23.713Z,1757.3147
2023-02-09T22:28:26.112Z,2212.49219
2023-02-09T22:43:28.614Z,1931.01746
2023-02-09T22:58:30.913Z,1300.86926
2023-02-09T23:13:33.189Z,1095.46887
2023-02-09T23:28:35.407Z,583.23578
2023-02-09T23:43:37.741Z,900.21173
2023-02-09T23:58:40.060Z,585.77155
